Time;durP1;ratioP1;P1;durP2;ratioP2;P2;SDS_P1;SDS_P2;PMS_P1;PMS_P2;Temp;Humidity;BMP_temperature;BMP_pressure;BME280_temperature;BME280_humidity;BME280_pressure;Samples;Min_cycle;Max_cycle;Signal;HPM_P1;HPM_P2
2021/05/25 00:02:29;;;;;;;4.22;3.50;;;11.20;91.30;;;;;;6165071;23;20018;-87
2021/05/25 00:15:42;;;;;;;5.93;4.03;;;11.10;91.30;;;;;;6085168;23;20009;-89
2021/05/25 00:18:58;;;;;;;;;;;;;;;;;;;;;
2021/05/25 00:22:06;;;;;;;;;;;;;;;;;;;;;
2021/05/25 00:24:48;;;;;;;6.45;4.50;;;11.00;91.30;;;;;;6190725;23;20104;-89
2021/05/25 00:27:47;;;;;;;6.00;4.30;;;11.00;91.30;;;;;;6215707;23;20028;-89
2021/05/25 00:31:12;;;;;;;;;;;;;;;;;;;;;
2021/05/25 00:33:38;;;;;;;7.53;5.10;;;10.90;91.30;;;;;;6212314;23;20032;-88
2021/05/25 00:36:11;;;;;;;6.35;4.97;;;10.90;91.30;;;;;;6215005;23;20044;-88
2021/05/25 00:38:54;;;;;;;;;;;;;;;;;;;;;
2021/05/25 00:41:46;;;;;;;6.47;4.90;;;10.90;91.30;;;;;;6216055;23;20084;-89
2021/05/25 00:45:06;;;;;;;8.40;5.15;;;10.90;91.40;;;;;;6215632;23;20058;-88
2021/05/25 00:48:17;;;;;;;6.28;5.43;;;10.90;91.40;;;;;;6215898;23;20032;-89
2021/05/25 00:51:21;;;;;;;6.97;5.30;;;10.90;91.40;;;;;;6190084;23;20066;-88
2021/05/25 00:54:13;;;;;;;;;;;;;;;;;;;;;
2021/05/25 00:57:03;;;;;;;6.55;4.95;;;10.80;91.40;;;;;;6064370;23;20082;-89
2021/05/25 01:00:08;;;;;;;7.87;4.63;;;10.80;91.40;;;;;;6063781;23;20007;-88
2021/05/25 01:03:10;;;;;;;6.00;4.50;;;10.80;91.40;;;;;;6063569;23;20011;-88
2021/05/25 01:09:56;;;;;;;5.43;3.67;;;10.80;91.40;;;;;;6200786;23;20426;-88
2021/05/25 01:21:26;;;;;;;;;;;10.80;91.40;;;;;;6204127;23;20024;-89
2021/05/25 01:24:05;;;;;;;5.00;3.25;;;10.80;91.30;;;;;;6190615;23;19967;-89
2021/05/25 01:27:01;;;;;;;6.35;3.20;;;10.70;91.30;;;;;;6213743;23;20016;-88
2021/05/25 01:30:04;;;;;;;5.70;3.13;;;10.70;91.30;;;;;;6206253;23;20059;-89
2021/05/25 01:33:02;;;;;;;5.22;3.28;;;10.70;91.20;;;;;;6215491;23;20005;-88
2021/05/25 01:35:52;;;;;;;5.07;3.33;;;10.60;91.20;;;;;;6206454;23;20013;-90
2021/05/25 01:42:13;;;;;;;3.85;2.50;;;10.60;91.10;;;;;;6194930;23;20009;-89
2021/05/25 01:44:41;;;;;;;4.47;2.65;;;10.50;91.00;;;;;;6208598;23;20012;-90
2021/05/25 01:50:15;;;;;;;4.25;2.60;;;10.50;91.10;;;;;;6195330;23;20523;-90
2021/05/25 01:52:58;;;;;;;3.17;2.35;;;10.50;91.10;;;;;;6214614;23;20004;-88
2021/05/25 01:55:31;;;;;;;3.85;2.15;;;10.50;91.10;;;;;;6214959;23;20107;-89
2021/05/25 01:58:32;;;;;;;3.97;2.35;;;10.50;91.10;;;;;;6215367;23;20011;-88
2021/05/25 02:01:30;;;;;;;3.85;2.30;;;10.50;91.10;;;;;;6187800;23;20008;-88
2021/05/25 02:10:01;;;;;;;3.28;1.75;;;10.40;91.00;;;;;;6199891;23;20008;-88
2021/05/25 02:12:56;;;;;;;4.22;1.90;;;10.40;90.90;;;;;;6217189;23;20020;-88
2021/05/25 02:15:45;;;;;;;4.55;1.80;;;10.40;90.80;;;;;;6171276;23;20013;-89
2021/05/25 02:18:52;;;;;;;2.78;1.95;;;10.30;90.70;;;;;;6204311;23;20035;-90
2021/05/25 02:21:52;;;;;;;;;;;;;;;;;;;;;
2021/05/25 02:24:29;;;;;;;4.35;2.00;;;10.30;90.70;;;;;;6192366;23;20100;-89
2021/05/25 02:27:45;;;;;;;3.63;1.92;;;10.20;90.70;;;;;;6215531;23;20009;-90
2021/05/25 02:30:28;;;;;;;;;;;;;;;;;;;;;
2021/05/25 02:36:22;;;;;;;;;;;;;;;;;;;;;
2021/05/25 02:42:09;;;;;;;3.95;2.28;;;10.10;90.70;;;;;;6206756;23;20058;-89
2021/05/25 02:44:37;;;;;;;4.50;2.25;;;10.00;90.70;;;;;;6218267;23;20031;-87
2021/05/25 02:47:19;;;;;;;3.55;2.00;;;10.00;90.70;;;;;;6217061;23;20001;-89
2021/05/25 02:49:53;;;;;;;3.10;2.13;;;10.00;90.80;;;;;;6042119;23;20011;-88
2021/05/25 02:59:31;;;;;;;;;;;;;;;;;;;;;
2021/05/25 03:02:15;;;;;;;3.20;2.25;;;9.90;90.60;;;;;;6185677;23;20080;-87
2021/05/25 03:08:24;;;;;;;3.53;2.20;;;9.80;90.60;;;;;;6174080;23;20075;-88
2021/05/25 03:10:52;;;;;;;5.05;2.33;;;9.70;90.60;;;;;;6189100;23;20007;-89
2021/05/25 03:13:46;;;;;;;4.95;2.15;;;9.70;90.60;;;;;;6166437;23;20073;-85
2021/05/25 03:16:18;;;;;;;4.20;2.20;;;9.70;90.70;;;;;;6214289;23;20017;-89
2021/05/25 03:19:16;;;;;;;3.00;2.08;;;9.60;90.70;;;;;;6214603;23;19996;-88
2021/05/25 03:21:56;;;;;;;3.10;2.22;;;9.60;90.80;;;;;;6188604;23;20097;-89
2021/05/25 03:24:33;;;;;;;4.95;2.17;;;9.60;90.70;;;;;;6195743;23;20020;-89
2021/05/25 03:30:24;;;;;;;;;;;;;;;;;;;;;
2021/05/25 03:33:16;;;;;;;3.83;2.35;;;9.60;90.80;;;;;;6215320;23;20089;-88
2021/05/25 03:36:15;;;;;;;;;;;;;;;;;;;;;
2021/05/25 03:38:43;;;;;;;6.85;2.50;;;9.60;90.90;;;;;;6217536;23;20092;-89
2021/05/25 03:41:32;;;;;;;4.72;2.40;;;9.50;90.90;;;;;;6216199;23;20015;-89
2021/05/25 03:44:15;;;;;;;;;;;;;;;;;;;;;
2021/05/25 03:47:08;;;;;;;4.80;3.20;;;9.60;91.00;;;;;;6065167;23;20089;-90
2021/05/25 03:49:34;;;;;;;6.18;2.60;;;9.50;91.00;;;;;;6064991;23;20003;-88
2021/05/25 03:52:14;;;;;;;3.75;2.40;;;9.50;91.00;;;;;;6064532;23;20094;-90
2021/05/25 03:55:00;;;;;;;3.67;2.60;;;9.50;91.00;;;;;;6064732;23;20018;-88
2021/05/25 04:00:19;;;;;;;3.90;2.50;;;9.50;91.00;;;;;;6066981;23;20077;-88
2021/05/25 04:06:14;;;;;;;3.90;2.40;;;9.50;91.10;;;;;;6219239;23;20086;-87
2021/05/25 04:08:45;;;;;;;4.43;2.63;;;9.50;91.10;;;;;;6208669;23;20032;-89
2021/05/25 04:11:35;;;;;;;3.83;2.60;;;9.50;91.10;;;;;;6221247;23;20052;-87
2021/05/25 04:17:42;;;;;;;;;;;;;;;;;;;;;
2021/05/25 04:20:40;;;;;;;3.72;2.50;;;9.60;91.20;;;;;;6203172;23;20028;-88
2021/05/25 04:23:31;;;;;;;4.82;3.05;;;9.60;91.20;;;;;;6233675;23;20080;-90
2021/05/25 04:26:19;;;;;;;4.32;3.00;;;9.60;91.20;;;;;;6233330;23;20035;-89
2021/05/25 04:29:34;;;;;;;5.78;3.38;;;9.60;91.30;;;;;;6235958;23;20004;-89
2021/05/25 04:32:08;;;;;;;6.95;3.38;;;9.70;91.20;;;;;;6236752;23;20005;-89
2021/05/25 04:34:47;;;;;;;;;;;;;;;;;;;;;
2021/05/25 04:37:40;;;;;;;6.47;3.67;;;9.60;91.20;;;;;;6240107;23;20011;-87
2021/05/25 04:43:22;;;;;;;6.25;3.70;;;9.60;91.20;;;;;;6144156;23;20401;-89
2021/05/25 04:45:53;;;;;;;7.30;3.90;;;9.60;91.30;;;;;;6228151;23;20410;-87
2021/05/25 04:48:32;;;;;;;;;;;9.70;91.20;;;;;;6230859;23;20081;-87
2021/05/25 04:51:23;;;;;;;5.05;3.92;;;9.70;91.20;;;;;;6206245;23;19931;-87
2021/05/25 04:54:26;;;;;;;5.50;4.22;;;9.70;91.20;;;;;;6233745;23;20004;-87
2021/05/25 04:56:55;;;;;;;6.05;4.10;;;9.60;91.20;;;;;;6211266;23;20016;-90
2021/05/25 04:59:44;;;;;;;6.50;4.63;;;9.70;91.30;;;;;;6234870;23;20001;-92
2021/05/25 05:02:24;;;;;;;6.43;4.45;;;9.70;91.40;;;;;;6205820;23;19996;-89
2021/05/25 05:08:35;;;;;;;5.60;4.57;;;9.80;91.30;;;;;;6219472;23;19999;-89
2021/05/25 05:11:29;;;;;;;;;;;;;;;;;;;;;
2021/05/25 05:14:41;;;;;;;4.97;4.47;;;9.80;91.20;;;;;;6169305;23;20027;-89
2021/05/25 05:17:58;;;;;;;;;;;;;;;;;;;;;
2021/05/25 05:20:46;;;;;;;4.53;3.42;;;9.90;91.30;;;;;;6091936;23;19991;-90
2021/05/25 05:23:50;;;;;;;;;;;;;;;;;;;;;
2021/05/25 05:30:03;;;;;;;;;;;;;;;;;;;;;
2021/05/25 05:33:30;;;;;;;9.02;5.55;;;10.10;91.20;;;;;;6080666;23;19913;-89
2021/05/25 05:36:18;;;;;;;6.28;4.20;;;10.10;91.20;;;;;;6087511;23;20066;-90
2021/05/25 05:39:43;;;;;;;;;;;;;;;;;;;;;
2021/05/25 05:42:42;;;;;;;6.50;3.67;;;10.20;91.20;;;;;;6206156;23;20039;-89
2021/05/25 05:52:05;;;;;;;;;;;;;;;;;;;;;
2021/05/25 05:54:52;;;;;;;;;;;;;;;;;;;;;
2021/05/25 05:57:46;;;;;;;;;;;;;;;;;;;;;
2021/05/25 06:00:48;;;;;;;5.43;4.93;;;10.40;90.90;;;;;;6215472;23;20088;-89
2021/05/25 06:03:44;;;;;;;;;;;;;;;;;;;;;
2021/05/25 06:06:52;;;;;;;;;;;;;;;;;;;;;
2021/05/25 06:09:51;;;;;;;;;;;;;;;;;;;;;
2021/05/25 06:12:30;;;;;;;;;;;;;;;;;;;;;
2021/05/25 06:17:50;;;;;;;;;;;10.50;90.80;;;;;;6199766;23;20015;-90
2021/05/25 06:23:59;;;;;;;;;;;10.50;90.60;;;;;;6204594;23;20550;-89
2021/05/25 06:26:59;;;;;;;7.88;7.07;;;10.50;90.50;;;;;;6165269;23;19906;-89
2021/05/25 06:30:00;;;;;;;;;;;;;;;;;;;;;
2021/05/25 06:33:14;;;;;;;6.80;5.72;;;10.50;90.50;;;;;;6215413;23;20359;-89
2021/05/25 06:36:19;;;;;;;;;;;;;;;;;;;;;
2021/05/25 06:38:54;;;;;;;18.35;12.88;;;10.50;90.60;;;;;;6215253;23;20080;-90
2021/05/25 06:45:01;;;;;;;;;;;;;;;;;;;;;
2021/05/25 06:47:49;;;;;;;9.38;7.20;;;10.60;90.40;;;;;;6160276;23;20085;-90
2021/05/25 06:50:23;;;;;;;8.00;7.20;;;10.70;90.50;;;;;;6214109;23;20021;-89
2021/05/25 06:53:40;;;;;;;;;;;;;;;;;;;;;
2021/05/25 06:56:38;;;;;;;7.53;6.72;;;10.80;90.50;;;;;;6197445;23;20087;-91
2021/05/25 07:03:01;;;;;;;;;;;;;;;;;;;;;
2021/05/25 07:06:17;;;;;;;8.98;7.55;;;10.90;90.10;;;;;;6212088;23;20096;-88
2021/05/25 07:09:51;;;;;;;;;;;;;;;;;;;;;
2021/05/25 07:13:25;;;;;;;9.18;7.80;;;10.90;90.00;;;;;;6153996;23;20087;-90
2021/05/25 07:16:27;;;;;;;9.10;8.20;;;10.90;90.00;;;;;;6121034;23;20014;-89
2021/05/25 07:19:41;;;;;;;9.80;7.88;;;11.00;90.00;;;;;;6102069;23;20006;-89
2021/05/25 07:22:26;;;;;;;8.48;7.68;;;11.00;90.30;;;;;;6090393;23;20006;-89
2021/05/25 07:25:31;;;;;;;;;;;;;;;;;;;;;
2021/05/25 07:31:02;;;;;;;11.80;9.45;;;11.30;90.00;;;;;;6090422;23;20017;-89
2021/05/25 07:33:48;;;;;;;10.02;9.02;;;11.30;90.30;;;;;;6095695;23;20020;-89
2021/05/25 07:36:32;;;;;;;8.70;7.85;;;11.30;89.60;;;;;;6071997;23;20014;-90
2021/05/25 07:40:07;;;;;;;9.57;7.75;;;11.30;89.60;;;;;;6182545;23;20009;-90
2021/05/25 07:46:38;;;;;;;;;;;;;;;;;;;;;
2021/05/25 07:49:39;;;;;;;;;;;;;;;;;;;;;
2021/05/25 07:52:18;;;;;;;7.75;7.05;;;11.50;89.60;;;;;;6186121;23;20081;-91
2021/05/25 07:55:30;;;;;;;8.48;7.68;;;11.60;89.70;;;;;;6185232;23;20017;-90
2021/05/25 07:58:26;;;;;;;;;;;;;;;;;;;;;
2021/05/25 08:01:03;;;;;;;;;;;;;;;;;;;;;
2021/05/25 08:07:10;;;;;;;7.25;5.95;;;11.90;89.50;;;;;;6124278;23;20010;-89
2021/05/25 08:10:24;;;;;;;;;;;;;;;;;;;;;
2021/05/25 08:13:15;;;;;;;;;;;;;;;;;;;;;
2021/05/25 08:15:49;;;;;;;9.20;6.65;;;12.00;88.80;;;;;;6125290;23;20088;-90
2021/05/25 08:22:23;;;;;;;6.95;5.75;;;12.00;89.00;;;;;;6097589;23;20109;-90
2021/05/25 08:25:08;;;;;;;;;;;;;;;;;;;;;
2021/05/25 08:28:26;;;;;;;10.13;5.63;;;12.10;89.60;;;;;;6132061;23;20096;-90
2021/05/25 08:31:33;;;;;;;5.90;5.30;;;12.10;90.00;;;;;;6163485;23;20024;-90
2021/05/25 08:34:44;;;;;;;7.13;5.20;;;12.30;90.00;;;;;;6215128;23;20008;-90
2021/05/25 08:37:42;;;;;;;6.93;4.88;;;12.30;90.10;;;;;;6058874;23;20007;-89
2021/05/25 08:40:18;;;;;;;4.63;3.42;;;12.40;90.00;;;;;;6063048;23;20007;-88
2021/05/25 08:43:09;;;;;;;;;;;;;;;;;;;;;
2021/05/25 08:49:47;;;;;;;8.70;3.88;;;12.60;89.00;;;;;;6181520;23;20013;-90
2021/05/25 08:52:41;;;;;;;;;;;;;;;;;;;;;
2021/05/25 08:55:19;;;;;;;6.43;2.75;;;12.80;88.50;;;;;;6214308;23;20087;-89
2021/05/25 08:58:21;;;;;;;;;;;;;;;;;;;;;
2021/05/25 09:01:14;;;;;;;5.25;2.53;;;12.90;88.10;;;;;;6213405;23;20076;-90
2021/05/25 09:04:17;;;;;;;;;;;;;;;;;;;;;
2021/05/25 09:07:21;;;;;;;4.13;2.38;;;13.00;86.70;;;;;;6201339;23;20087;-89
2021/05/25 09:10:02;;;;;;;2.15;1.10;;;13.00;87.10;;;;;;6214439;23;20005;-89
2021/05/25 09:13:03;;;;;;;;;;;;;;;;;;;;;
2021/05/25 09:15:40;;;;;;;4.15;1.10;;;12.90;81.30;;;;;;6215534;23;20092;-89
2021/05/25 09:21:45;;;;;;;3.28;0.77;;;12.40;83.10;;;;;;6199604;23;20005;-90
2021/05/25 09:24:48;;;;;;;4.55;1.00;;;12.20;84.30;;;;;;6214790;23;20062;-91
2021/05/25 09:27:58;;;;;;;;;;;;;;;;;;;;;
2021/05/25 09:30:46;;;;;;;;;;;;;;;;;;;;;
2021/05/25 09:33:40;;;;;;;3.75;1.42;;;12.00;87.60;;;;;;6215209;23;20088;-88
2021/05/25 09:37:00;;;;;;;3.50;1.10;;;11.90;87.90;;;;;;6213918;23;20035;-90
2021/05/25 09:39:54;;;;;;;2.88;1.17;;;11.90;88.50;;;;;;6212111;23;20079;-89
2021/05/25 09:42:35;;;;;;;1.98;0.88;;;11.90;88.70;;;;;;6148216;23;20008;-90
2021/05/25 09:45:16;;;;;;;2.17;0.90;;;11.90;88.40;;;;;;6213604;23;20000;-88
2021/05/25 09:48:52;;;;;;;1.65;0.80;;;11.90;88.80;;;;;;6213444;23;20004;-90
2021/05/25 09:51:09;;;;;;;1.38;0.85;;;11.90;89.10;;;;;;6196252;23;20106;-90
2021/05/25 09:54:16;;;;;;;2.13;1.20;;;12.00;89.60;;;;;;6213143;23;20407;-88
2021/05/25 09:57:12;;;;;;;;;;;;;;;;;;;;;
2021/05/25 10:00:08;;;;;;;3.53;1.40;;;12.00;90.00;;;;;;6214118;23;20493;-88
2021/05/25 10:02:54;;;;;;;3.40;1.30;;;12.20;90.10;;;;;;6150099;23;20095;-89
2021/05/25 10:11:52;;;;;;;4.35;1.98;;;12.30;90.20;;;;;;6214802;23;20013;-90
2021/05/25 10:14:23;;;;;;;3.90;2.33;;;12.40;90.30;;;;;;6214110;23;20426;-90
2021/05/25 10:16:58;;;;;;;6.25;2.33;;;12.50;90.40;;;;;;6188599;23;20017;-91
2021/05/25 10:19:35;;;;;;;7.50;2.50;;;12.50;90.30;;;;;;6188865;23;20326;-89
2021/05/25 10:22:21;;;;;;;6.35;2.60;;;12.60;90.40;;;;;;6213170;23;20083;-90
2021/05/25 10:25:10;;;;;;;6.20;3.08;;;12.70;90.50;;;;;;6213268;23;20048;-89
2021/05/25 10:27:50;;;;;;;7.78;2.95;;;12.80;90.40;;;;;;6212100;23;20016;-89
2021/05/25 10:30:49;;;;;;;;;;;;;;;;;;;;;
2021/05/25 10:33:19;;;;;;;5.35;3.10;;;12.90;90.30;;;;;;6212265;23;20079;-90
2021/05/25 10:36:30;;;;;;;7.82;3.90;;;12.90;90.30;;;;;;6212713;23;20035;-90
2021/05/25 10:42:31;;;;;;;;;;;12.70;90.20;;;;;;6190101;23;20008;-88
2021/05/25 10:45:33;;;;;;;;;;;;;;;;;;;;;
2021/05/25 10:52:10;;;;;;;;;;;;;;;;;;;;;
2021/05/25 10:54:58;;;;;;;10.48;4.03;;;12.30;90.30;;;;;;6184553;23;20091;-88
2021/05/25 10:58:03;;;;;;;7.05;3.42;;;12.20;90.30;;;;;;6214202;23;20008;-89
2021/05/25 11:00:51;;;;;;;11.77;4.18;;;12.20;90.40;;;;;;6099170;23;20018;-89
2021/05/25 11:03:34;;;;;;;6.32;4.20;;;12.20;90.70;;;;;;6187251;23;20087;-89
2021/05/25 11:06:45;;;;;;;7.45;3.55;;;12.30;90.80;;;;;;6213076;23;20067;-90
2021/05/25 11:12:45;;;;;;;;;;;;;;;;;;;;;
2021/05/25 11:15:23;;;;;;;7.10;2.97;;;12.60;91.20;;;;;;6174325;23;20115;-90
2021/05/25 11:18:31;;;;;;;6.07;2.35;;;12.70;91.00;;;;;;6214460;23;20048;-89
2021/05/25 11:29:09;;;;;;;;;;;;;;;;;;;;;
2021/05/25 11:32:09;;;;;;;;;;;;;;;;;;;;;
2021/05/25 11:42:18;;;;;;;;;;;;;;;;;;;;;
2021/05/25 11:55:02;;;;;;;5.97;1.80;;;13.90;83.30;;;;;;6118653;23;20150;-89
2021/05/25 12:01:44;;;;;;;;;;;;;;;;;;;;;
2021/05/25 12:14:53;;;;;;;3.25;1.52;;;13.70;81.20;;;;;;5892471;24;20010;-89
2021/05/25 12:21:32;;;;;;;;;;;;;;;;;;;;;
2021/05/25 12:25:15;;;;;;;;;;;;;;;;;;;;;
2021/05/25 12:34:54;;;;;;;3.95;1.00;;;13.60;79.40;;;;;;5919985;24;20053;-88
2021/05/25 12:38:05;;;;;;;3.63;0.90;;;13.60;79.80;;;;;;5895785;24;20006;-89
2021/05/25 12:41:05;;;;;;;2.28;0.68;;;13.50;78.80;;;;;;6019595;23;20106;-89
2021/05/25 12:44:10;;;;;;;2.40;0.80;;;13.50;78.70;;;;;;5958704;23;20004;-90
2021/05/25 12:50:36;;;;;;;;;;;;;;;;;;;;;
2021/05/25 12:53:22;;;;;;;2.92;0.80;;;13.40;79.20;;;;;;6066250;23;20081;-89
2021/05/25 12:55:54;;;;;;;3.40;0.88;;;13.30;79.30;;;;;;6093968;23;20018;-89
2021/05/25 12:59:04;;;;;;;4.15;0.80;;;13.30;79.60;;;;;;6154404;23;20184;-88
2021/05/25 13:02:05;;;;;;;2.03;0.80;;;13.20;79.70;;;;;;6147887;23;20006;-88
2021/05/25 13:08:44;;;;;;;1.42;0.80;;;13.40;80.70;;;;;;6149298;23;20799;-89
2021/05/25 13:11:28;;;;;;;;;;;;;;;;;;;;;
2021/05/25 13:21:24;;;;;;;3.88;1.10;;;13.70;80.80;;;;;;6036707;23;20018;-91
2021/05/25 13:30:40;;;;;;;;;;;;;;;;;;;;;
2021/05/25 13:33:47;;;;;;;3.42;0.93;;;13.40;78.50;;;;;;6056928;23;20491;-89
2021/05/25 13:37:00;;;;;;;;;;;;;;;;;;;;;
2021/05/25 13:46:11;;;;;;;2.13;1.05;;;13.60;80.90;;;;;;6066373;23;20019;-88
2021/05/25 13:52:37;;;;;;;;;;;;;;;;;;;;;
2021/05/25 13:55:39;;;;;;;;;;;;;;;;;;;;;
2021/05/25 13:58:33;;;;;;;3.55;1.00;;;13.70;81.50;;;;;;6173073;23;20093;-89
2021/05/25 14:01:39;;;;;;;2.83;0.73;;;13.70;81.50;;;;;;6159475;23;20063;-89
2021/05/25 14:07:46;;;;;;;;;;;;;;;;;;;;;
2021/05/25 14:14:03;;;;;;;;;;;;;;;;;;;;;
2021/05/25 14:17:07;;;;;;;;;;;;;;;;;;;;;
2021/05/25 14:20:06;;;;;;;;;;;;;;;;;;;;;
2021/05/25 14:23:24;;;;;;;3.38;1.00;;;13.90;79.90;;;;;;6183226;23;20092;-88
2021/05/25 14:29:30;;;;;;;;;;;;;;;;;;;;;
2021/05/25 14:32:11;;;;;;;2.63;1.08;;;13.90;79.20;;;;;;6064377;23;20081;-89
2021/05/25 14:35:02;;;;;;;5.43;1.02;;;13.80;79.00;;;;;;6038929;23;20015;-88
2021/05/25 14:37:37;;;;;;;3.40;1.30;;;13.90;79.10;;;;;;6065188;23;20007;-89
2021/05/25 14:40:40;;;;;;;;;;;;;;;;;;;;;
2021/05/25 14:43:12;;;;;;;4.47;1.50;;;13.80;79.10;;;;;;6192115;23;20084;-89
2021/05/25 14:46:30;;;;;;;2.17;1.40;;;13.80;78.50;;;;;;6214391;23;20043;-90
2021/05/25 14:49:17;;;;;;;4.15;1.23;;;13.80;78.40;;;;;;6189142;23;20003;-90
2021/05/25 14:52:13;;;;;;;;;;;;;;;;;;;;;
2021/05/25 14:58:27;;;;;;;;;;;;;;;;;;;;;
2021/05/25 15:01:11;;;;;;;;;;;;;;;;;;;;;
2021/05/25 15:06:56;;;;;;;2.92;1.40;;;13.60;80.10;;;;;;6197391;23;20013;-90
2021/05/25 15:13:00;;;;;;;;;;;;;;;;;;;;;
2021/05/25 15:16:13;;;;;;;2.95;1.10;;;13.70;79.60;;;;;;6212381;23;20088;-90
2021/05/25 15:25:31;;;;;;;5.72;1.25;;;13.60;78.70;;;;;;6187539;23;20508;-89
2021/05/25 15:28:45;;;;;;;;;;;;;;;;;;;;;
2021/05/25 15:32:10;;;;;;;3.88;1.45;;;13.50;80.60;;;;;;6216340;23;20099;-89
2021/05/25 15:38:00;;;;;;;1.55;1.00;;;13.50;82.30;;;;;;6211963;23;20005;-92
2021/05/25 15:40:42;;;;;;;1.73;0.85;;;13.40;82.80;;;;;;6193028;23;20084;-90
2021/05/25 15:43:56;;;;;;;1.48;0.63;;;13.50;82.90;;;;;;6215463;23;20032;-91
2021/05/25 15:46:56;;;;;;;;;;;;;;;;;;;;;
2021/05/25 15:53:57;;;;;;;;;;;;;;;;;;;;;
2021/05/25 15:57:23;;;;;;;;;;;;;;;;;;;;;
2021/05/25 16:13:32;;;;;;;;;;;;;;;;;;;;;
2021/05/25 16:16:20;;;;;;;;;;;;;;;;;;;;;
2021/05/25 16:19:16;;;;;;;;;;;;;;;;;;;;;
2021/05/25 16:22:21;;;;;;;3.83;1.30;;;13.00;87.10;;;;;;6122650;23;20101;-89
2021/05/25 16:25:22;;;;;;;2.15;1.00;;;13.00;87.60;;;;;;6190535;23;20331;-90
2021/05/25 16:28:42;;;;;;;;;;;;;;;;;;;;;
2021/05/25 16:31:30;;;;;;;;;;;;;;;;;;;;;
2021/05/25 16:34:27;;;;;;;2.15;1.13;;;13.00;87.30;;;;;;6212931;23;20486;-91
2021/05/25 16:37:44;;;;;;;;;;;;;;;;;;;;;
2021/05/25 16:40:39;;;;;;;;;;;;;;;;;;;;;
2021/05/25 16:43:44;;;;;;;;;;;;;;;;;;;;;
2021/05/25 16:50:04;;;;;;;;;;;;;;;;;;;;;
2021/05/25 16:55:35;;;;;;;3.60;1.42;;;12.90;86.70;;;;;;6169707;23;20416;-89
2021/05/25 16:58:48;;;;;;;2.63;1.20;;;12.80;86.80;;;;;;6214991;23;20017;-90
2021/05/25 17:08:02;;;;;;;5.95;1.60;;;12.80;87.80;;;;;;6204049;23;20331;-91
2021/05/25 17:20:44;;;;;;;;;;;;;;;;;;;;;
2021/05/25 17:23:28;;;;;;;6.35;2.10;;;12.70;89.00;;;;;;6214814;23;20088;-89
2021/05/25 17:28:59;;;;;;;7.20;2.35;;;12.70;89.90;;;;;;6215872;23;20464;-89
2021/05/25 17:31:33;;;;;;;6.15;2.75;;;12.70;89.40;;;;;;6214739;23;20083;-90
2021/05/25 17:34:31;;;;;;;;;;;;;;;;;;;;;
2021/05/25 17:37:18;;;;;;;;;;;;;;;;;;;;;
2021/05/25 17:40:04;;;;;;;5.20;2.38;;;12.70;89.70;;;;;;6203248;23;20100;-90
2021/05/25 17:42:52;;;;;;;4.20;2.17;;;12.70;89.90;;;;;;6213738;23;20091;-89
2021/05/25 17:46:18;;;;;;;;;;;;;;;;;;;;;
2021/05/25 17:49:16;;;;;;;4.90;2.42;;;12.70;90.10;;;;;;6064359;23;20085;-90
2021/05/25 17:52:07;;;;;;;4.85;2.42;;;12.70;90.20;;;;;;6086034;23;20091;-89
2021/05/25 17:54:43;;;;;;;;;;;12.70;90.20;;;;;;6184099;23;20040;-89
2021/05/25 17:57:42;;;;;;;;;;;;;;;;;;;;;
2021/05/25 18:00:37;;;;;;;5.80;2.45;;;12.70;90.20;;;;;;6210700;23;20084;-89
2021/05/25 18:06:33;;;;;;;5.13;2.53;;;12.70;90.10;;;;;;6214306;23;20012;-89
2021/05/25 18:08:59;;;;;;;5.10;2.50;;;12.60;90.30;;;;;;6214962;23;20005;-91
2021/05/25 18:11:47;;;;;;;6.10;2.45;;;12.60;90.10;;;;;;6214037;23;20000;-89
2021/05/25 18:14:49;;;;;;;3.60;2.03;;;12.60;90.10;;;;;;6214269;23;20067;-89
2021/05/25 18:17:53;;;;;;;;;;;;;;;;;;;;;
2021/05/25 18:20:27;;;;;;;6.18;2.60;;;12.60;90.00;;;;;;6214744;23;20091;-90
2021/05/25 18:30:19;;;;;;;;;;;;;;;;;;;;;
2021/05/25 18:42:40;;;;;;;2.97;2.08;;;12.40;89.90;;;;;;6030222;23;20007;-88
2021/05/25 18:45:40;;;;;;;6.03;2.33;;;12.40;90.00;;;;;;6094261;23;20017;-90
2021/05/25 18:49:07;;;;;;;6.10;2.70;;;12.40;90.00;;;;;;6070360;23;20012;-89
2021/05/25 19:01:58;;;;;;;4.53;2.03;;;12.30;90.10;;;;;;5928845;23;20054;-90
2021/05/25 19:05:14;;;;;;;4.68;1.70;;;12.30;89.80;;;;;;6018198;23;20018;-89
2021/05/25 19:11:46;;;;;;;;;;;;;;;;;;;;;
2021/05/25 19:28:32;;;;;;;3.55;1.75;;;11.80;90.30;;;;;;6091964;23;20049;-90
2021/05/25 19:31:12;;;;;;;6.10;2.17;;;11.70;90.20;;;;;;6057123;23;20062;-89
2021/05/25 19:38:02;;;;;;;5.25;1.98;;;11.60;90.40;;;;;;6076836;23;20010;-87
2021/05/25 19:41:21;;;;;;;;;;;;;;;;;;;;;
2021/05/25 19:44:12;;;;;;;4.05;1.77;;;11.50;90.60;;;;;;6124886;23;20077;-88
2021/05/25 19:53:26;;;;;;;;;;;;;;;;;;;;;
2021/05/25 19:56:34;;;;;;;;;;;;;;;;;;;;;
2021/05/25 19:59:43;;;;;;;;;;;;;;;;;;;;;
2021/05/25 20:10:05;;;;;;;;;;;;;;;;;;;;;
2021/05/25 20:15:41;;;;;;;;;;;11.30;91.10;;;;;;6074868;23;20017;-90
2021/05/25 20:18:48;;;;;;;2.92;1.60;;;11.30;91.10;;;;;;6152566;23;19900;-88
2021/05/25 20:22:17;;;;;;;4.05;1.80;;;11.20;91.10;;;;;;6152812;23;20016;-88
2021/05/25 20:25:14;;;;;;;;;;;;;;;;;;;;;
2021/05/25 20:28:21;;;;;;;4.40;1.80;;;11.20;91.10;;;;;;6127900;23;20096;-89
2021/05/25 20:38:10;;;;;;;3.22;1.77;;;11.20;91.10;;;;;;6127965;23;20029;-89
2021/05/25 20:41:39;;;;;;;3.28;1.80;;;11.20;91.10;;;;;;6182856;23;20001;-89
2021/05/25 20:51:19;;;;;;;;;;;;;;;;;;;;;
2021/05/25 20:54:34;;;;;;;;;;;;;;;;;;;;;
2021/05/25 21:11:52;;;;;;;3.58;2.10;;;11.20;91.30;;;;;;5764945;24;20453;-89
2021/05/25 21:21:33;;;;;;;;;;;;;;;;;;;;;
2021/05/25 21:24:52;;;;;;;;;;;;;;;;;;;;;
2021/05/25 21:31:40;;;;;;;4.30;2.30;;;11.10;91.40;;;;;;5954602;24;20008;-88
2021/05/25 21:37:29;;;;;;;;;;;;;;;;;;;;;
2021/05/25 21:40:17;;;;;;;7.53;2.70;;;11.10;91.80;;;;;;6216124;23;20397;-90
2021/05/25 21:43:22;;;;;;;4.70;2.85;;;11.10;91.50;;;;;;6200456;23;20087;-89
2021/05/25 21:45:57;;;;;;;5.15;2.75;;;11.10;91.50;;;;;;6210284;23;20016;-89
2021/05/25 21:49:13;;;;;;;;;;;;;;;;;;;;;
2021/05/25 21:52:07;;;;;;;4.43;3.08;;;11.20;91.60;;;;;;6217874;23;20123;-89
2021/05/25 21:55:02;;;;;;;4.45;2.95;;;11.10;91.50;;;;;;6216012;23;20032;-89
2021/05/25 22:01:13;;;;;;;;;;;;;;;;;;;;;
2021/05/25 22:07:02;;;;;;;5.45;3.38;;;11.10;91.60;;;;;;6154344;23;20016;-90
2021/05/25 22:10:03;;;;;;;;;;;;;;;;;;;;;
2021/05/25 22:12:54;;;;;;;7.68;3.38;;;11.10;91.60;;;;;;6190767;23;20083;-90
2021/05/25 22:15:51;;;;;;;7.55;3.67;;;11.20;91.60;;;;;;6214156;23;20016;-89
2021/05/25 22:19:05;;;;;;;;;;;;;;;;;;;;;
2021/05/25 22:21:44;;;;;;;9.25;4.32;;;11.20;91.60;;;;;;6216450;23;20076;-90
2021/05/25 22:24:38;;;;;;;6.85;3.70;;;11.20;91.60;;;;;;6215188;23;20009;-89
2021/05/25 22:27:34;;;;;;;7.00;4.10;;;11.20;91.70;;;;;;6186524;23;21110;-90
2021/05/25 22:30:50;;;;;;;;;;;;;;;;;;;;;
2021/05/25 22:33:55;;;;;;;;;;;;;;;;;;;;;
2021/05/25 22:37:09;;;;;;;9.05;4.40;;;11.20;91.80;;;;;;6216276;23;20088;-88
2021/05/25 22:39:40;;;;;;;8.57;4.72;;;11.30;91.80;;;;;;6179071;23;20059;-88
2021/05/25 22:52:43;;;;;;;10.10;6.60;;;11.10;91.60;;;;;;6203065;23;20009;-89
2021/05/25 22:56:10;;;;;;;12.57;7.10;;;11.10;91.70;;;;;;6200104;23;20013;-89
2021/05/25 22:59:03;;;;;;;9.57;7.70;;;11.10;91.70;;;;;;6211697;23;20035;-89
2021/05/25 23:02:02;;;;;;;10.63;7.68;;;11.10;91.70;;;;;;6217597;23;20009;-89
2021/05/25 23:05:05;;;;;;;;;;;;;;;;;;;;;
2021/05/25 23:07:44;;;;;;;10.93;8.52;;;11.00;91.70;;;;;;6219099;23;20101;-89
2021/05/25 23:13:58;;;;;;;14.57;8.25;;;10.90;91.60;;;;;;6219802;23;20044;-88
2021/05/25 23:16:56;;;;;;;;;;;;;;;;;;;;;
2021/05/25 23:23:45;;;;;;;14.38;8.73;;;10.80;91.70;;;;;;6187447;23;20089;-89
2021/05/25 23:33:29;;;;;;;;;;;;;;;;;;;;;
2021/05/25 23:36:38;;;;;;;11.35;7.63;;;10.70;91.70;;;;;;6216522;23;20092;-88
2021/05/25 23:42:28;;;;;;;;;;;;;;;;;;;;;
2021/05/25 23:57:52;;;;;;;;;;;;;;;;;;;;;
